sensor_id;sensor_type;location;lat;lon;timestamp;P1;durP1;ratioP1;P2;durP2;ratioP2
15246;SDS011;7726;48.820;9.248;2024-02-21T00:02:21;9.47;;;4.70;;
15246;SDS011;7726;48.820;9.248;2024-02-21T00:04:48;7.10;;;3.85;;
15246;SDS011;7726;48.820;9.248;2024-02-21T00:07:16;10.33;;;4.07;;
15246;SDS011;7726;48.820;9.248;2024-02-21T00:09:43;5.53;;;3.75;;
15246;SDS011;7726;48.820;9.248;2024-02-21T00:12:10;8.73;;;3.97;;
15246;SDS011;7726;48.820;9.248;2024-02-21T00:14:40;5.70;;;3.67;;
15246;SDS011;7726;48.820;9.248;2024-02-21T00:17:07;8.53;;;3.73;;
15246;SDS011;7726;48.820;9.248;2024-02-21T00:19:34;10.83;;;3.70;;
15246;SDS011;7726;48.820;9.248;2024-02-21T00:22:01;9.83;;;4.13;;
15246;SDS011;7726;48.820;9.248;2024-02-21T00:24:28;7.70;;;3.87;;
15246;SDS011;7726;48.820;9.248;2024-02-21T00:26:56;7.97;;;3.70;;
15246;SDS011;7726;48.820;9.248;2024-02-21T00:29:23;6.33;;;4.07;;
15246;SDS011;7726;48.820;9.248;2024-02-21T00:31:52;10.95;;;4.70;;
15246;SDS011;7726;48.820;9.248;2024-02-21T00:34:19;8.90;;;4.35;;
15246;SDS011;7726;48.820;9.248;2024-02-21T00:36:46;8.97;;;3.77;;
15246;SDS011;7726;48.820;9.248;2024-02-21T00:39:13;8.33;;;4.17;;
15246;SDS011;7726;48.820;9.248;2024-02-21T00:41:40;5.83;;;3.40;;
15246;SDS011;7726;48.820;9.248;2024-02-21T00:44:07;8.57;;;3.70;;
15246;SDS011;7726;48.820;9.248;2024-02-21T00:46:35;7.73;;;3.80;;
15246;SDS011;7726;48.820;9.248;2024-02-21T00:49:05;9.53;;;3.97;;
15246;SDS011;7726;48.820;9.248;2024-02-21T00:51:32;14.93;;;4.27;;
15246;SDS011;7726;48.820;9.248;2024-02-21T00:53:59;10.93;;;3.60;;
15246;SDS011;7726;48.820;9.248;2024-02-21T00:56:27;6.97;;;3.43;;
15246;SDS011;7726;48.820;9.248;2024-02-21T00:58:54;10.00;;;3.87;;
15246;SDS011;7726;48.820;9.248;2024-02-21T01:01:22;10.63;;;4.00;;
15246;SDS011;7726;48.820;9.248;2024-02-21T01:03:49;8.20;;;3.55;;
15246;SDS011;7726;48.820;9.248;2024-02-21T01:06:19;12.27;;;3.80;;
15246;SDS011;7726;48.820;9.248;2024-02-21T01:08:47;7.37;;;4.00;;
15246;SDS011;7726;48.820;9.248;2024-02-21T01:11:14;10.33;;;4.37;;
15246;SDS011;7726;48.820;9.248;2024-02-21T01:13:41;10.33;;;3.73;;
15246;SDS011;7726;48.820;9.248;2024-02-21T01:16:08;7.40;;;3.20;;
15246;SDS011;7726;48.820;9.248;2024-02-21T01:18:37;8.70;;;3.60;;
15246;SDS011;7726;48.820;9.248;2024-02-21T01:21:04;8.87;;;3.93;;
15246;SDS011;7726;48.820;9.248;2024-02-21T01:23:33;9.47;;;4.00;;
15246;SDS011;7726;48.820;9.248;2024-02-21T01:26:00;10.37;;;3.90;;
15246;SDS011;7726;48.820;9.248;2024-02-21T01:28:27;7.63;;;3.60;;
15246;SDS011;7726;48.820;9.248;2024-02-21T01:30:55;8.53;;;3.60;;
15246;SDS011;7726;48.820;9.248;2024-02-21T01:33:24;8.10;;;3.97;;
15246;SDS011;7726;48.820;9.248;2024-02-21T01:35:51;8.30;;;3.43;;
15246;SDS011;7726;48.820;9.248;2024-02-21T01:38:19;8.50;;;3.97;;
15246;SDS011;7726;48.820;9.248;2024-02-21T01:40:47;8.77;;;3.93;;
15246;SDS011;7726;48.820;9.248;2024-02-21T01:43:15;8.83;;;4.10;;
15246;SDS011;7726;48.820;9.248;2024-02-21T01:45:43;8.13;;;3.87;;
15246;SDS011;7726;48.820;9.248;2024-02-21T01:48:10;8.20;;;4.27;;
15246;SDS011;7726;48.820;9.248;2024-02-21T01:50:38;10.17;;;3.50;;
15246;SDS011;7726;48.820;9.248;2024-02-21T01:53:05;12.77;;;3.90;;
15246;SDS011;7726;48.820;9.248;2024-02-21T01:55:33;7.70;;;3.72;;
15246;SDS011;7726;48.820;9.248;2024-02-21T01:58:02;10.83;;;4.00;;
15246;SDS011;7726;48.820;9.248;2024-02-21T02:00:29;7.80;;;3.30;;
15246;SDS011;7726;48.820;9.248;2024-02-21T02:02:57;5.63;;;3.43;;
15246;SDS011;7726;48.820;9.248;2024-02-21T02:05:24;7.23;;;3.67;;
15246;SDS011;7726;48.820;9.248;2024-02-21T02:07:52;7.97;;;3.57;;
15246;SDS011;7726;48.820;9.248;2024-02-21T02:10:19;9.70;;;4.17;;
15246;SDS011;7726;48.820;9.248;2024-02-21T02:12:46;8.43;;;3.57;;
15246;SDS011;7726;48.820;9.248;2024-02-21T02:15:15;10.97;;;3.70;;
15246;SDS011;7726;48.820;9.248;2024-02-21T02:17:42;8.57;;;3.60;;
15246;SDS011;7726;48.820;9.248;2024-02-21T02:20:09;11.27;;;3.83;;
15246;SDS011;7726;48.820;9.248;2024-02-21T02:22:37;4.73;;;3.10;;
15246;SDS011;7726;48.820;9.248;2024-02-21T02:25:07;10.97;;;3.80;;
15246;SDS011;7726;48.820;9.248;2024-02-21T02:27:41;9.93;;;3.50;;
15246;SDS011;7726;48.820;9.248;2024-02-21T02:30:10;7.93;;;3.37;;
15246;SDS011;7726;48.820;9.248;2024-02-21T02:32:37;9.05;;;3.65;;
15246;SDS011;7726;48.820;9.248;2024-02-21T02:35:05;7.60;;;3.37;;
15246;SDS011;7726;48.820;9.248;2024-02-21T02:37:32;8.80;;;3.40;;
15246;SDS011;7726;48.820;9.248;2024-02-21T02:39:59;8.60;;;3.27;;
15246;SDS011;7726;48.820;9.248;2024-02-21T02:42:28;7.23;;;3.00;;
15246;SDS011;7726;48.820;9.248;2024-02-21T02:44:55;8.17;;;3.60;;
15246;SDS011;7726;48.820;9.248;2024-02-21T02:47:23;8.13;;;3.77;;
15246;SDS011;7726;48.820;9.248;2024-02-21T02:49:50;6.90;;;3.10;;
15246;SDS011;7726;48.820;9.248;2024-02-21T02:52:17;5.67;;;3.47;;
15246;SDS011;7726;48.820;9.248;2024-02-21T02:54:45;6.00;;;3.40;;
15246;SDS011;7726;48.820;9.248;2024-02-21T02:57:16;9.97;;;4.10;;
15246;SDS011;7726;48.820;9.248;2024-02-21T02:59:48;7.27;;;3.30;;
15246;SDS011;7726;48.820;9.248;2024-02-21T03:02:15;5.73;;;3.60;;
15246;SDS011;7726;48.820;9.248;2024-02-21T03:04:42;9.30;;;3.67;;
15246;SDS011;7726;48.820;9.248;2024-02-21T03:07:09;7.93;;;3.20;;
15246;SDS011;7726;48.820;9.248;2024-02-21T03:09:37;8.60;;;3.70;;
15246;SDS011;7726;48.820;9.248;2024-02-21T03:12:04;9.43;;;3.40;;
15246;SDS011;7726;48.820;9.248;2024-02-21T03:14:32;5.07;;;3.30;;
15246;SDS011;7726;48.820;9.248;2024-02-21T03:17:00;9.33;;;3.93;;
15246;SDS011;7726;48.820;9.248;2024-02-21T03:19:28;6.43;;;3.78;;
15246;SDS011;7726;48.820;9.248;2024-02-21T03:21:55;5.43;;;3.37;;
15246;SDS011;7726;48.820;9.248;2024-02-21T03:24:22;4.80;;;3.13;;
15246;SDS011;7726;48.820;9.248;2024-02-21T03:26:50;7.27;;;3.87;;
15246;SDS011;7726;48.820;9.248;2024-02-21T03:29:17;11.00;;;3.70;;
15246;SDS011;7726;48.820;9.248;2024-02-21T03:31:44;8.77;;;3.80;;
15246;SDS011;7726;48.820;9.248;2024-02-21T03:34:13;10.20;;;4.03;;
15246;SDS011;7726;48.820;9.248;2024-02-21T03:36:40;8.40;;;3.70;;
15246;SDS011;7726;48.820;9.248;2024-02-21T03:39:07;7.70;;;4.47;;
15246;SDS011;7726;48.820;9.248;2024-02-21T03:41:34;6.90;;;4.03;;
15246;SDS011;7726;48.820;9.248;2024-02-21T03:44:01;7.63;;;3.90;;
15246;SDS011;7726;48.820;9.248;2024-02-21T03:46:30;6.37;;;4.00;;
15246;SDS011;7726;48.820;9.248;2024-02-21T03:48:57;9.07;;;4.10;;
15246;SDS011;7726;48.820;9.248;2024-02-21T03:51:27;10.73;;;3.80;;
15246;SDS011;7726;48.820;9.248;2024-02-21T03:53:54;10.07;;;4.70;;
15246;SDS011;7726;48.820;9.248;2024-02-21T03:56:21;11.93;;;4.37;;
15246;SDS011;7726;48.820;9.248;2024-02-21T03:58:48;5.73;;;3.40;;
15246;SDS011;7726;48.820;9.248;2024-02-21T04:01:15;11.73;;;4.47;;
15246;SDS011;7726;48.820;9.248;2024-02-21T04:03:44;7.00;;;3.50;;
15246;SDS011;7726;48.820;9.248;2024-02-21T04:06:11;8.30;;;3.80;;
15246;SDS011;7726;48.820;9.248;2024-02-21T04:08:40;9.60;;;4.03;;
15246;SDS011;7726;48.820;9.248;2024-02-21T04:11:07;7.10;;;3.53;;
15246;SDS011;7726;48.820;9.248;2024-02-21T04:13:34;5.43;;;3.47;;
15246;SDS011;7726;48.820;9.248;2024-02-21T04:16:01;7.13;;;3.40;;
15246;SDS011;7726;48.820;9.248;2024-02-21T04:18:29;8.40;;;3.20;;
15246;SDS011;7726;48.820;9.248;2024-02-21T04:20:56;8.23;;;3.43;;
15246;SDS011;7726;48.820;9.248;2024-02-21T04:23:23;8.73;;;3.57;;
15246;SDS011;7726;48.820;9.248;2024-02-21T04:25:52;7.17;;;2.70;;
15246;SDS011;7726;48.820;9.248;2024-02-21T04:28:19;6.47;;;3.17;;
15246;SDS011;7726;48.820;9.248;2024-02-21T04:30:46;8.50;;;3.30;;
15246;SDS011;7726;48.820;9.248;2024-02-21T04:33:13;6.47;;;2.90;;
15246;SDS011;7726;48.820;9.248;2024-02-21T04:35:41;8.63;;;3.20;;
15246;SDS011;7726;48.820;9.248;2024-02-21T04:38:08;7.10;;;3.20;;
15246;SDS011;7726;48.820;9.248;2024-02-21T04:40:35;5.50;;;3.20;;
15246;SDS011;7726;48.820;9.248;2024-02-21T04:43:04;3.27;;;2.53;;
15246;SDS011;7726;48.820;9.248;2024-02-21T04:45:31;5.20;;;3.10;;
15246;SDS011;7726;48.820;9.248;2024-02-21T04:47:58;6.23;;;2.43;;
15246;SDS011;7726;48.820;9.248;2024-02-21T04:50:25;7.57;;;3.10;;
15246;SDS011;7726;48.820;9.248;2024-02-21T04:52:53;5.30;;;3.00;;
15246;SDS011;7726;48.820;9.248;2024-02-21T04:55:20;6.77;;;2.93;;
15246;SDS011;7726;48.820;9.248;2024-02-21T04:57:47;8.17;;;3.37;;
15246;SDS011;7726;48.820;9.248;2024-02-21T05:00:16;6.50;;;3.03;;
15246;SDS011;7726;48.820;9.248;2024-02-21T05:02:43;6.87;;;3.07;;
15246;SDS011;7726;48.820;9.248;2024-02-21T05:05:11;9.17;;;3.47;;
15246;SDS011;7726;48.820;9.248;2024-02-21T05:07:40;8.27;;;2.80;;
15246;SDS011;7726;48.820;9.248;2024-02-21T05:10:07;7.80;;;2.90;;
15246;SDS011;7726;48.820;9.248;2024-02-21T05:12:35;7.07;;;3.00;;
15246;SDS011;7726;48.820;9.248;2024-02-21T05:15:02;6.57;;;2.97;;
15246;SDS011;7726;48.820;9.248;2024-02-21T05:17:31;7.87;;;3.17;;
15246;SDS011;7726;48.820;9.248;2024-02-21T05:19:58;6.67;;;2.90;;
15246;SDS011;7726;48.820;9.248;2024-02-21T05:22:25;4.03;;;3.20;;
15246;SDS011;7726;48.820;9.248;2024-02-21T05:24:52;7.73;;;3.20;;
15246;SDS011;7726;48.820;9.248;2024-02-21T05:27:19;6.10;;;2.77;;
15246;SDS011;7726;48.820;9.248;2024-02-21T05:29:46;4.50;;;2.40;;
15246;SDS011;7726;48.820;9.248;2024-02-21T05:32:14;3.97;;;2.60;;
15246;SDS011;7726;48.820;9.248;2024-02-21T05:34:44;7.53;;;2.63;;
15246;SDS011;7726;48.820;9.248;2024-02-21T05:37:15;5.33;;;2.70;;
15246;SDS011;7726;48.820;9.248;2024-02-21T05:39:43;7.87;;;3.10;;
15246;SDS011;7726;48.820;9.248;2024-02-21T05:42:10;4.60;;;2.63;;
15246;SDS011;7726;48.820;9.248;2024-02-21T05:44:37;4.17;;;2.70;;
15246;SDS011;7726;48.820;9.248;2024-02-21T05:47:05;6.43;;;3.03;;
15246;SDS011;7726;48.820;9.248;2024-02-21T05:49:35;6.73;;;3.10;;
15246;SDS011;7726;48.820;9.248;2024-02-21T05:52:03;4.67;;;3.20;;
15246;SDS011;7726;48.820;9.248;2024-02-21T05:54:31;7.27;;;3.40;;
15246;SDS011;7726;48.820;9.248;2024-02-21T05:56:58;8.57;;;3.10;;
15246;SDS011;7726;48.820;9.248;2024-02-21T05:59:25;5.87;;;3.33;;
15246;SDS011;7726;48.820;9.248;2024-02-21T06:01:56;7.80;;;3.47;;
15246;SDS011;7726;48.820;9.248;2024-02-21T06:04:23;6.60;;;3.23;;
15246;SDS011;7726;48.820;9.248;2024-02-21T06:06:50;7.53;;;3.20;;
15246;SDS011;7726;48.820;9.248;2024-02-21T06:09:19;4.87;;;2.60;;
15246;SDS011;7726;48.820;9.248;2024-02-21T06:11:46;6.03;;;2.67;;
15246;SDS011;7726;48.820;9.248;2024-02-21T06:14:14;4.23;;;3.40;;
15246;SDS011;7726;48.820;9.248;2024-02-21T06:16:42;7.07;;;2.97;;
15246;SDS011;7726;48.820;9.248;2024-02-21T06:19:10;5.70;;;3.03;;
15246;SDS011;7726;48.820;9.248;2024-02-21T06:21:37;7.03;;;2.97;;
15246;SDS011;7726;48.820;9.248;2024-02-21T06:24:04;5.13;;;3.00;;
15246;SDS011;7726;48.820;9.248;2024-02-21T06:26:33;5.47;;;2.70;;
15246;SDS011;7726;48.820;9.248;2024-02-21T06:29:00;6.63;;;2.50;;
15246;SDS011;7726;48.820;9.248;2024-02-21T06:31:27;8.00;;;3.00;;
15246;SDS011;7726;48.820;9.248;2024-02-21T06:33:56;6.87;;;3.07;;
15246;SDS011;7726;48.820;9.248;2024-02-21T06:36:23;10.00;;;3.60;;
15246;SDS011;7726;48.820;9.248;2024-02-21T06:38:50;7.03;;;3.10;;
15246;SDS011;7726;48.820;9.248;2024-02-21T06:41:18;7.43;;;3.23;;
15246;SDS011;7726;48.820;9.248;2024-02-21T06:43:46;7.90;;;3.07;;
15246;SDS011;7726;48.820;9.248;2024-02-21T06:46:22;8.10;;;3.03;;
15246;SDS011;7726;48.820;9.248;2024-02-21T06:48:49;8.90;;;3.40;;
15246;SDS011;7726;48.820;9.248;2024-02-21T06:51:16;9.83;;;3.10;;
15246;SDS011;7726;48.820;9.248;2024-02-21T06:53:43;8.63;;;3.63;;
15246;SDS011;7726;48.820;9.248;2024-02-21T06:56:10;8.67;;;3.00;;
15246;SDS011;7726;48.820;9.248;2024-02-21T06:58:38;7.03;;;2.63;;
15246;SDS011;7726;48.820;9.248;2024-02-21T07:01:06;5.20;;;2.80;;
15246;SDS011;7726;48.820;9.248;2024-02-21T07:03:33;6.27;;;2.80;;
15246;SDS011;7726;48.820;9.248;2024-02-21T07:06:00;7.00;;;3.23;;
15246;SDS011;7726;48.820;9.248;2024-02-21T07:08:28;5.00;;;2.40;;
15246;SDS011;7726;48.820;9.248;2024-02-21T07:10:55;5.77;;;2.83;;
15246;SDS011;7726;48.820;9.248;2024-02-21T07:13:22;4.50;;;2.70;;
15246;SDS011;7726;48.820;9.248;2024-02-21T07:15:49;9.80;;;3.37;;
15246;SDS011;7726;48.820;9.248;2024-02-21T07:18:18;4.47;;;2.80;;
15246;SDS011;7726;48.820;9.248;2024-02-21T07:20:45;4.97;;;2.70;;
15246;SDS011;7726;48.820;9.248;2024-02-21T07:23:12;7.53;;;2.67;;
15246;SDS011;7726;48.820;9.248;2024-02-21T07:25:39;4.73;;;2.40;;
15246;SDS011;7726;48.820;9.248;2024-02-21T07:28:06;6.03;;;3.10;;
15246;SDS011;7726;48.820;9.248;2024-02-21T07:30:34;7.97;;;2.87;;
15246;SDS011;7726;48.820;9.248;2024-02-21T07:33:01;8.37;;;2.60;;
15246;SDS011;7726;48.820;9.248;2024-02-21T07:35:30;13.83;;;3.10;;
15246;SDS011;7726;48.820;9.248;2024-02-21T07:37:57;7.33;;;2.90;;
15246;SDS011;7726;48.820;9.248;2024-02-21T07:40:24;8.03;;;2.73;;
15246;SDS011;7726;48.820;9.248;2024-02-21T07:42:51;8.37;;;2.60;;
15246;SDS011;7726;48.820;9.248;2024-02-21T07:45:18;5.63;;;2.77;;
15246;SDS011;7726;48.820;9.248;2024-02-21T07:47:48;7.60;;;3.13;;
15246;SDS011;7726;48.820;9.248;2024-02-21T07:50:16;9.03;;;2.67;;
15246;SDS011;7726;48.820;9.248;2024-02-21T07:52:44;4.50;;;2.90;;
15246;SDS011;7726;48.820;9.248;2024-02-21T07:55:11;9.27;;;2.73;;
15246;SDS011;7726;48.820;9.248;2024-02-21T07:57:39;6.43;;;2.73;;
15246;SDS011;7726;48.820;9.248;2024-02-21T08:00:06;5.20;;;2.40;;
15246;SDS011;7726;48.820;9.248;2024-02-21T08:02:34;4.43;;;2.40;;
15246;SDS011;7726;48.820;9.248;2024-02-21T08:05:02;8.00;;;2.67;;
15246;SDS011;7726;48.820;9.248;2024-02-21T08:07:30;6.73;;;2.90;;
15246;SDS011;7726;48.820;9.248;2024-02-21T08:09:58;6.20;;;2.60;;
15246;SDS011;7726;48.820;9.248;2024-02-21T08:12:25;4.67;;;2.50;;
15246;SDS011;7726;48.820;9.248;2024-02-21T08:14:53;7.73;;;2.47;;
15246;SDS011;7726;48.820;9.248;2024-02-21T08:17:20;7.90;;;2.60;;
15246;SDS011;7726;48.820;9.248;2024-02-21T08:19:47;5.87;;;3.00;;
15246;SDS011;7726;48.820;9.248;2024-02-21T08:22:15;6.57;;;3.08;;
15246;SDS011;7726;48.820;9.248;2024-02-21T08:24:42;5.88;;;2.75;;
15246;SDS011;7726;48.820;9.248;2024-02-21T08:27:10;5.25;;;2.60;;
15246;SDS011;7726;48.820;9.248;2024-02-21T08:29:38;5.65;;;2.65;;
15246;SDS011;7726;48.820;9.248;2024-02-21T08:32:05;5.03;;;2.80;;
15246;SDS011;7726;48.820;9.248;2024-02-21T08:34:32;8.98;;;2.75;;
15246;SDS011;7726;48.820;9.248;2024-02-21T08:37:00;5.88;;;2.60;;
15246;SDS011;7726;48.820;9.248;2024-02-21T08:39:27;7.30;;;2.88;;
15246;SDS011;7726;48.820;9.248;2024-02-21T08:41:55;7.10;;;3.35;;
15246;SDS011;7726;48.820;9.248;2024-02-21T08:44:23;5.95;;;2.50;;
15246;SDS011;7726;48.820;9.248;2024-02-21T08:46:51;7.57;;;3.33;;
15246;SDS011;7726;48.820;9.248;2024-02-21T08:49:18;9.57;;;3.22;;
15246;SDS011;7726;48.820;9.248;2024-02-21T08:51:45;8.02;;;3.28;;
15246;SDS011;7726;48.820;9.248;2024-02-21T08:54:13;6.40;;;2.47;;
15246;SDS011;7726;48.820;9.248;2024-02-21T08:56:42;8.07;;;2.75;;
15246;SDS011;7726;48.820;9.248;2024-02-21T08:59:09;6.97;;;3.33;;
15246;SDS011;7726;48.820;9.248;2024-02-21T09:01:37;5.57;;;3.13;;
15246;SDS011;7726;48.820;9.248;2024-02-21T09:04:05;8.20;;;3.28;;
15246;SDS011;7726;48.820;9.248;2024-02-21T09:06:32;8.52;;;3.30;;
15246;SDS011;7726;48.820;9.248;2024-02-21T09:09:02;4.20;;;2.63;;
15246;SDS011;7726;48.820;9.248;2024-02-21T09:11:29;8.23;;;3.13;;
15246;SDS011;7726;48.820;9.248;2024-02-21T09:13:56;5.38;;;2.78;;
15246;SDS011;7726;48.820;9.248;2024-02-21T09:16:24;6.97;;;2.50;;
15246;SDS011;7726;48.820;9.248;2024-02-21T09:18:52;5.78;;;2.72;;
15246;SDS011;7726;48.820;9.248;2024-02-21T09:21:19;6.57;;;2.45;;
15246;SDS011;7726;48.820;9.248;2024-02-21T09:23:46;6.35;;;2.90;;
15246;SDS011;7726;48.820;9.248;2024-02-21T09:26:14;6.20;;;2.85;;
15246;SDS011;7726;48.820;9.248;2024-02-21T09:28:42;6.13;;;3.13;;
15246;SDS011;7726;48.820;9.248;2024-02-21T09:31:09;6.68;;;2.50;;
15246;SDS011;7726;48.820;9.248;2024-02-21T09:33:36;5.53;;;2.70;;
15246;SDS011;7726;48.820;9.248;2024-02-21T09:36:05;7.38;;;2.72;;
15246;SDS011;7726;48.820;9.248;2024-02-21T09:38:32;8.10;;;2.30;;
15246;SDS011;7726;48.820;9.248;2024-02-21T09:41:00;6.20;;;2.60;;
15246;SDS011;7726;48.820;9.248;2024-02-21T09:43:30;4.30;;;2.50;;
15246;SDS011;7726;48.820;9.248;2024-02-21T09:45:58;8.25;;;2.60;;
15246;SDS011;7726;48.820;9.248;2024-02-21T09:48:27;6.43;;;2.58;;
15246;SDS011;7726;48.820;9.248;2024-02-21T09:50:57;6.45;;;2.40;;
15246;SDS011;7726;48.820;9.248;2024-02-21T09:53:27;6.13;;;2.58;;
15246;SDS011;7726;48.820;9.248;2024-02-21T09:55:54;8.05;;;3.03;;
15246;SDS011;7726;48.820;9.248;2024-02-21T09:58:22;6.22;;;2.25;;
15246;SDS011;7726;48.820;9.248;2024-02-21T10:00:52;7.00;;;2.80;;
15246;SDS011;7726;48.820;9.248;2024-02-21T10:03:19;4.93;;;2.22;;
15246;SDS011;7726;48.820;9.248;2024-02-21T10:05:47;4.25;;;2.20;;
15246;SDS011;7726;48.820;9.248;2024-02-21T10:08:15;5.15;;;2.28;;
15246;SDS011;7726;48.820;9.248;2024-02-21T10:10:44;12.70;;;3.13;;
15246;SDS011;7726;48.820;9.248;2024-02-21T10:13:23;5.82;;;2.28;;
15246;SDS011;7726;48.820;9.248;2024-02-21T10:16:00;9.45;;;2.72;;
15246;SDS011;7726;48.820;9.248;2024-02-21T10:18:27;7.20;;;2.70;;
15246;SDS011;7726;48.820;9.248;2024-02-21T10:20:59;6.88;;;2.40;;
15246;SDS011;7726;48.820;9.248;2024-02-21T10:23:26;5.45;;;2.30;;
15246;SDS011;7726;48.820;9.248;2024-02-21T10:25:55;7.07;;;3.65;;
15246;SDS011;7726;48.820;9.248;2024-02-21T10:28:31;8.80;;;2.65;;
15246;SDS011;7726;48.820;9.248;2024-02-21T10:30:58;6.47;;;2.25;;
15246;SDS011;7726;48.820;9.248;2024-02-21T10:33:25;6.35;;;2.70;;
15246;SDS011;7726;48.820;9.248;2024-02-21T10:35:53;4.60;;;2.15;;
15246;SDS011;7726;48.820;9.248;2024-02-21T10:38:20;3.63;;;1.85;;
15246;SDS011;7726;48.820;9.248;2024-02-21T10:40:47;4.75;;;1.67;;
15246;SDS011;7726;48.820;9.248;2024-02-21T10:43:19;4.38;;;1.95;;
15246;SDS011;7726;48.820;9.248;2024-02-21T10:45:47;5.40;;;2.35;;
15246;SDS011;7726;48.820;9.248;2024-02-21T10:48:14;4.70;;;1.92;;
15246;SDS011;7726;48.820;9.248;2024-02-21T10:50:47;3.25;;;1.90;;
15246;SDS011;7726;48.820;9.248;2024-02-21T10:53:19;2.08;;;1.40;;
15246;SDS011;7726;48.820;9.248;2024-02-21T10:55:51;4.60;;;1.70;;
15246;SDS011;7726;48.820;9.248;2024-02-21T10:58:23;6.18;;;2.53;;
15246;SDS011;7726;48.820;9.248;2024-02-21T11:00:53;4.43;;;1.58;;
15246;SDS011;7726;48.820;9.248;2024-02-21T11:03:21;5.50;;;2.13;;
15246;SDS011;7726;48.820;9.248;2024-02-21T11:05:48;5.00;;;2.10;;
15246;SDS011;7726;48.820;9.248;2024-02-21T11:08:16;6.20;;;2.10;;
15246;SDS011;7726;48.820;9.248;2024-02-21T11:10:45;3.65;;;2.00;;
15246;SDS011;7726;48.820;9.248;2024-02-21T11:13:12;5.25;;;2.13;;
15246;SDS011;7726;48.820;9.248;2024-02-21T11:15:41;4.60;;;1.70;;
15246;SDS011;7726;48.820;9.248;2024-02-21T11:18:08;3.83;;;1.75;;
15246;SDS011;7726;48.820;9.248;2024-02-21T11:20:36;4.88;;;1.80;;
15246;SDS011;7726;48.820;9.248;2024-02-21T11:23:03;4.30;;;1.70;;
15246;SDS011;7726;48.820;9.248;2024-02-21T11:25:31;3.28;;;1.70;;
15246;SDS011;7726;48.820;9.248;2024-02-21T11:27:59;4.88;;;1.75;;
15246;SDS011;7726;48.820;9.248;2024-02-21T11:30:26;2.65;;;1.23;;
15246;SDS011;7726;48.820;9.248;2024-02-21T11:32:59;3.08;;;1.50;;
15246;SDS011;7726;48.820;9.248;2024-02-21T11:35:30;5.80;;;1.40;;
15246;SDS011;7726;48.820;9.248;2024-02-21T11:38:07;2.55;;;1.05;;
15246;SDS011;7726;48.820;9.248;2024-02-21T11:40:35;3.45;;;1.35;;
15246;SDS011;7726;48.820;9.248;2024-02-21T11:43:02;4.35;;;1.77;;
15246;SDS011;7726;48.820;9.248;2024-02-21T11:45:29;3.85;;;1.60;;
15246;SDS011;7726;48.820;9.248;2024-02-21T11:47:57;4.47;;;2.13;;
15246;SDS011;7726;48.820;9.248;2024-02-21T11:50:26;3.58;;;1.60;;
15246;SDS011;7726;48.820;9.248;2024-02-21T11:52:54;4.43;;;1.80;;
15246;SDS011;7726;48.820;9.248;2024-02-21T11:55:21;3.17;;;1.45;;
15246;SDS011;7726;48.820;9.248;2024-02-21T11:57:48;4.38;;;1.60;;
15246;SDS011;7726;48.820;9.248;2024-02-21T12:00:16;3.42;;;1.65;;
15246;SDS011;7726;48.820;9.248;2024-02-21T12:02:45;4.20;;;1.90;;
15246;SDS011;7726;48.820;9.248;2024-02-21T12:05:12;2.33;;;1.50;;
15246;SDS011;7726;48.820;9.248;2024-02-21T12:07:41;5.15;;;1.70;;
15246;SDS011;7726;48.820;9.248;2024-02-21T12:10:08;2.22;;;1.30;;
15246;SDS011;7726;48.820;9.248;2024-02-21T12:12:36;4.63;;;1.67;;
15246;SDS011;7726;48.820;9.248;2024-02-21T12:15:04;4.22;;;1.77;;
15246;SDS011;7726;48.820;9.248;2024-02-21T12:17:32;2.33;;;1.40;;
15246;SDS011;7726;48.820;9.248;2024-02-21T12:20:00;2.53;;;1.30;;
15246;SDS011;7726;48.820;9.248;2024-02-21T12:22:29;2.78;;;1.40;;
15246;SDS011;7726;48.820;9.248;2024-02-21T12:24:58;5.15;;;1.55;;
15246;SDS011;7726;48.820;9.248;2024-02-21T12:27:26;3.05;;;1.65;;
15246;SDS011;7726;48.820;9.248;2024-02-21T12:29:54;1.92;;;1.27;;
15246;SDS011;7726;48.820;9.248;2024-02-21T12:32:21;2.95;;;1.70;;
15246;SDS011;7726;48.820;9.248;2024-02-21T12:34:49;2.47;;;1.50;;
15246;SDS011;7726;48.820;9.248;2024-02-21T12:37:16;3.70;;;1.60;;
15246;SDS011;7726;48.820;9.248;2024-02-21T12:39:44;2.88;;;1.50;;
15246;SDS011;7726;48.820;9.248;2024-02-21T12:42:13;3.15;;;1.25;;
15246;SDS011;7726;48.820;9.248;2024-02-21T12:44:40;3.80;;;1.65;;
15246;SDS011;7726;48.820;9.248;2024-02-21T12:47:08;3.22;;;1.52;;
15246;SDS011;7726;48.820;9.248;2024-02-21T12:49:35;4.82;;;1.20;;
15246;SDS011;7726;48.820;9.248;2024-02-21T12:52:02;2.13;;;1.35;;
15246;SDS011;7726;48.820;9.248;2024-02-21T12:54:29;2.10;;;1.25;;
15246;SDS011;7726;48.820;9.248;2024-02-21T12:56:57;3.88;;;1.60;;
15246;SDS011;7726;48.820;9.248;2024-02-21T12:59:29;2.33;;;1.42;;
15246;SDS011;7726;48.820;9.248;2024-02-21T13:01:56;2.72;;;1.48;;
15246;SDS011;7726;48.820;9.248;2024-02-21T13:04:23;3.30;;;1.63;;
15246;SDS011;7726;48.820;9.248;2024-02-21T13:06:50;5.05;;;1.55;;
15246;SDS011;7726;48.820;9.248;2024-02-21T13:09:18;1.75;;;1.13;;
15246;SDS011;7726;48.820;9.248;2024-02-21T13:11:45;4.15;;;1.20;;
15246;SDS011;7726;48.820;9.248;2024-02-21T13:14:12;4.13;;;1.20;;
15246;SDS011;7726;48.820;9.248;2024-02-21T13:16:40;3.70;;;1.50;;
15246;SDS011;7726;48.820;9.248;2024-02-21T13:19:08;1.77;;;1.05;;
15246;SDS011;7726;48.820;9.248;2024-02-21T13:21:35;2.03;;;1.20;;
15246;SDS011;7726;48.820;9.248;2024-02-21T13:24:02;2.47;;;1.30;;
15246;SDS011;7726;48.820;9.248;2024-02-21T13:26:30;1.90;;;1.13;;
15246;SDS011;7726;48.820;9.248;2024-02-21T13:28:57;1.65;;;1.20;;
15246;SDS011;7726;48.820;9.248;2024-02-21T13:31:24;3.33;;;1.10;;
15246;SDS011;7726;48.820;9.248;2024-02-21T13:33:53;2.97;;;1.10;;
15246;SDS011;7726;48.820;9.248;2024-02-21T13:36:20;1.95;;;1.00;;
15246;SDS011;7726;48.820;9.248;2024-02-21T13:38:47;1.42;;;1.10;;
15246;SDS011;7726;48.820;9.248;2024-02-21T13:41:16;2.33;;;1.15;;
15246;SDS011;7726;48.820;9.248;2024-02-21T13:43:43;3.15;;;1.23;;
15246;SDS011;7726;48.820;9.248;2024-02-21T13:46:11;2.35;;;1.15;;
15246;SDS011;7726;48.820;9.248;2024-02-21T13:48:38;2.75;;;1.20;;
15246;SDS011;7726;48.820;9.248;2024-02-21T13:51:07;2.55;;;1.33;;
15246;SDS011;7726;48.820;9.248;2024-02-21T13:53:36;2.88;;;1.80;;
15246;SDS011;7726;48.820;9.248;2024-02-21T13:56:04;3.67;;;1.35;;
15246;SDS011;7726;48.820;9.248;2024-02-21T13:58:31;1.60;;;1.17;;
15246;SDS011;7726;48.820;9.248;2024-02-21T14:00:58;2.67;;;1.08;;
15246;SDS011;7726;48.820;9.248;2024-02-21T14:03:25;1.75;;;1.02;;
15246;SDS011;7726;48.820;9.248;2024-02-21T14:05:53;2.05;;;1.20;;
15246;SDS011;7726;48.820;9.248;2024-02-21T14:08:21;2.10;;;1.20;;
15246;SDS011;7726;48.820;9.248;2024-02-21T14:10:49;2.65;;;0.90;;
15246;SDS011;7726;48.820;9.248;2024-02-21T14:13:16;2.60;;;1.00;;
15246;SDS011;7726;48.820;9.248;2024-02-21T14:15:43;2.60;;;1.00;;
15246;SDS011;7726;48.820;9.248;2024-02-21T14:18:13;3.08;;;1.20;;
15246;SDS011;7726;48.820;9.248;2024-02-21T14:20:41;1.45;;;1.00;;
15246;SDS011;7726;48.820;9.248;2024-02-21T14:23:08;3.10;;;0.88;;
15246;SDS011;7726;48.820;9.248;2024-02-21T14:25:36;1.15;;;1.00;;
15246;SDS011;7726;48.820;9.248;2024-02-21T14:28:04;1.48;;;1.20;;
15246;SDS011;7726;48.820;9.248;2024-02-21T14:30:32;2.15;;;1.40;;
15246;SDS011;7726;48.820;9.248;2024-02-21T14:32:59;1.73;;;1.00;;
15246;SDS011;7726;48.820;9.248;2024-02-21T14:35:26;2.35;;;1.23;;
15246;SDS011;7726;48.820;9.248;2024-02-21T14:37:53;3.22;;;1.42;;
15246;SDS011;7726;48.820;9.248;2024-02-21T14:40:22;1.50;;;1.00;;
15246;SDS011;7726;48.820;9.248;2024-02-21T14:42:53;3.35;;;0.80;;
15246;SDS011;7726;48.820;9.248;2024-02-21T14:45:20;1.10;;;1.00;;
15246;SDS011;7726;48.820;9.248;2024-02-21T14:47:48;2.25;;;1.20;;
15246;SDS011;7726;48.820;9.248;2024-02-21T14:50:15;1.80;;;1.13;;
15246;SDS011;7726;48.820;9.248;2024-02-21T14:52:42;2.53;;;0.98;;
15246;SDS011;7726;48.820;9.248;2024-02-21T14:55:09;2.20;;;1.00;;
15246;SDS011;7726;48.820;9.248;2024-02-21T14:57:37;2.17;;;1.00;;
15246;SDS011;7726;48.820;9.248;2024-02-21T15:00:08;1.77;;;0.82;;
15246;SDS011;7726;48.820;9.248;2024-02-21T15:02:36;4.07;;;1.10;;
15246;SDS011;7726;48.820;9.248;2024-02-21T15:05:03;1.05;;;0.95;;